Time;durP1;ratioP1;P1;durP2;ratioP2;P2;SDS_P1;SDS_P2;PMS_P1;PMS_P2;Temp;Humidity;BMP_temperature;BMP_pressure;BME280_temperature;BME280_humidity;BME280_pressure;Samples;Min_cycle;Max_cycle;Signal;HPM_P1;HPM_P2
2023/05/31 00:00:26;;;;;;;9.10;3.95;;;;;;;;;;5020192;28;20045;-64
2023/05/31 00:02:53;;;;;;;9.90;4.03;;;;;;;;;;5014722;28;20416;-63
2023/05/31 00:05:19;;;;;;;10.05;4.20;;;;;;;;;;5012097;28;20037;-63
2023/05/31 00:07:45;;;;;;;11.70;4.50;;;;;;;;;;5014395;28;20073;-63
2023/05/31 00:10:11;;;;;;;11.00;4.65;;;;;;;;;;5020112;28;20040;-63
2023/05/31 00:12:37;;;;;;;10.80;4.50;;;;;;;;;;4995747;28;20037;-63
2023/05/31 00:15:04;;;;;;;11.82;4.25;;;;;;;;;;4998208;28;20069;-63
2023/05/31 00:17:30;;;;;;;11.85;4.55;;;;;;;;;;5012950;28;20503;-63
2023/05/31 00:19:56;;;;;;;11.30;4.53;;;;;;;;;;5019166;28;20050;-63
2023/05/31 00:22:22;;;;;;;10.18;3.92;;;;;;;;;;5015290;28;20040;-63
2023/05/31 00:24:48;;;;;;;9.25;3.88;;;;;;;;;;5015366;28;20090;-63
2023/05/31 00:27:15;;;;;;;8.98;4.43;;;;;;;;;;4994501;28;20042;-63
2023/05/31 00:29:41;;;;;;;12.18;5.10;;;;;;;;;;5019331;28;20037;-63
2023/05/31 00:32:07;;;;;;;10.80;5.03;;;;;;;;;;4997497;28;20041;-63
2023/05/31 00:34:33;;;;;;;9.32;5.18;;;;;;;;;;5015697;28;20042;-63
2023/05/31 00:36:59;;;;;;;11.20;5.95;;;;;;;;;;5016626;28;20045;-62
2023/05/31 00:39:25;;;;;;;13.50;6.53;;;;;;;;;;5021485;28;20064;-63
2023/05/31 00:41:52;;;;;;;16.73;7.25;;;;;;;;;;5005094;28;20033;-63
2023/05/31 00:44:18;;;;;;;15.95;6.80;;;;;;;;;;5016009;28;20033;-63
2023/05/31 00:46:44;;;;;;;18.08;8.13;;;;;;;;;;5000168;28;20387;-63
2023/05/31 00:49:10;;;;;;;15.02;7.47;;;;;;;;;;5006037;28;20410;-63
2023/05/31 00:51:37;;;;;;;12.00;6.25;;;;;;;;;;5017078;28;20425;-63
2023/05/31 00:54:03;;;;;;;11.13;5.93;;;;;;;;;;5018452;28;20459;-62
2023/05/31 00:56:30;;;;;;;14.05;4.40;;;;;;;;;;5002867;28;20025;-62
2023/05/31 00:58:57;;;;;;;13.55;4.55;;;;;;;;;;5021525;28;20056;-63
2023/05/31 01:01:27;;;;;;;11.68;4.05;;;;;;;;;;5021213;28;20045;-63
2023/05/31 01:03:55;;;;;;;17.40;4.13;;;;;;;;;;5019540;28;20056;-62
2023/05/31 01:06:21;;;;;;;10.27;3.67;;;;;;;;;;4985084;28;20491;-63
2023/05/31 01:08:52;;;;;;;10.10;3.60;;;;;;;;;;5006961;28;20049;-62
2023/05/31 01:11:29;;;;;;;6.70;3.40;;;;;;;;;;5020567;28;20045;-63
2023/05/31 01:14:13;;;;;;;6.25;3.45;;;;;;;;;;4998191;28;20377;-63
2023/05/31 01:16:52;;;;;;;7.30;3.47;;;;;;;;;;5018101;28;20506;-63
2023/05/31 01:19:32;;;;;;;15.55;4.22;;;;;;;;;;5017764;28;20057;-62
2023/05/31 01:22:27;;;;;;;6.03;3.40;;;;;;;;;;5022839;28;20042;-63
2023/05/31 01:25:11;;;;;;;10.68;3.92;;;;;;;;;;5008212;28;20045;-62
2023/05/31 01:27:41;;;;;;;6.40;3.15;;;;;;;;;;5000844;28;20399;-63
2023/05/31 01:30:09;;;;;;;7.53;3.08;;;;;;;;;;4997572;28;20044;-62
2023/05/31 01:32:36;;;;;;;9.13;3.85;;;;;;;;;;5001365;28;20050;-63
2023/05/31 01:35:03;;;;;;;10.52;3.20;;;;;;;;;;5020130;28;20048;-62
2023/05/31 01:37:29;;;;;;;6.05;3.15;;;;;;;;;;5004486;28;20057;-62
2023/05/31 01:39:56;;;;;;;6.65;4.18;;;;;;;;;;4994266;28;20053;-62
2023/05/31 01:42:23;;;;;;;10.20;3.83;;;;;;;;;;4998245;28;20038;-62
2023/05/31 01:44:50;;;;;;;9.10;3.40;;;;;;;;;;4998992;28;20416;-62
2023/05/31 01:47:18;;;;;;;11.70;3.58;;;;;;;;;;5000198;28;20044;-63
2023/05/31 01:49:46;;;;;;;9.13;3.10;;;;;;;;;;5001800;28;20046;-62
2023/05/31 01:52:15;;;;;;;10.75;3.55;;;;;;;;;;4985194;28;20407;-62
2023/05/31 01:54:41;;;;;;;10.98;3.38;;;;;;;;;;4998158;28;20038;-62
2023/05/31 01:57:08;;;;;;;10.00;3.10;;;;;;;;;;4995837;28;20034;-63
2023/05/31 01:59:37;;;;;;;8.50;3.00;;;;;;;;;;4997805;28;20038;-63
2023/05/31 02:02:05;;;;;;;8.27;2.67;;;;;;;;;;5003319;28;20045;-62
2023/05/31 02:04:32;;;;;;;7.15;3.13;;;;;;;;;;5000387;28;20033;-63
2023/05/31 02:07:00;;;;;;;10.65;3.67;;;;;;;;;;5018246;28;20029;-62
2023/05/31 02:09:26;;;;;;;7.20;3.45;;;;;;;;;;5000418;28;20045;-61
2023/05/31 02:11:52;;;;;;;5.80;2.90;;;;;;;;;;5008811;28;20459;-63
2023/05/31 02:14:18;;;;;;;11.02;2.78;;;;;;;;;;4989368;28;20046;-63
2023/05/31 02:16:44;;;;;;;9.30;2.88;;;;;;;;;;5004586;28;20049;-62
2023/05/31 02:19:13;;;;;;;9.07;3.75;;;;;;;;;;4991231;28;20056;-63
2023/05/31 02:21:40;;;;;;;8.75;4.32;;;;;;;;;;5007124;28;20046;-62
2023/05/31 02:24:08;;;;;;;12.43;3.15;;;;;;;;;;5018758;28;20046;-62
2023/05/31 02:26:35;;;;;;;7.43;2.90;;;;;;;;;;5017678;28;20052;-60
2023/05/31 02:29:01;;;;;;;10.68;3.35;;;;;;;;;;4997214;28;20038;-63
2023/05/31 02:31:27;;;;;;;7.75;3.45;;;;;;;;;;5004872;28;20040;-63
2023/05/31 02:33:54;;;;;;;8.95;3.80;;;;;;;;;;4999731;28;20411;-63
2023/05/31 02:36:20;;;;;;;12.52;3.00;;;;;;;;;;4998848;28;20097;-63
2023/05/31 02:38:46;;;;;;;6.95;2.70;;;;;;;;;;5001107;28;20026;-63
2023/05/31 02:41:12;;;;;;;7.88;3.05;;;;;;;;;;5012703;28;20493;-63
2023/05/31 02:43:38;;;;;;;7.07;2.72;;;;;;;;;;4998800;28;20121;-63
2023/05/31 02:46:04;;;;;;;4.60;2.63;;;;;;;;;;4999575;28;20041;-64
2023/05/31 02:48:31;;;;;;;5.20;2.80;;;;;;;;;;5006553;28;20037;-62
2023/05/31 02:50:58;;;;;;;8.48;3.08;;;;;;;;;;5005113;28;20514;-63
2023/05/31 02:53:39;;;;;;;6.25;3.20;;;;;;;;;;4995955;28;20045;-60
2023/05/31 02:56:12;;;;;;;10.13;3.75;;;;;;;;;;5001199;28;20033;-62
2023/05/31 02:59:05;;;;;;;6.95;2.58;;;;;;;;;;5003904;28;20117;-64
2023/05/31 03:01:40;;;;;;;7.78;2.70;;;;;;;;;;4996910;28;20038;-62
2023/05/31 03:04:20;;;;;;;7.65;2.88;;;;;;;;;;4997804;28;20045;-63
2023/05/31 03:06:47;;;;;;;5.97;2.55;;;;;;;;;;5000107;28;20029;-62
2023/05/31 03:09:16;;;;;;;8.05;3.00;;;;;;;;;;4999144;28;20041;-63
2023/05/31 03:11:44;;;;;;;6.80;2.88;;;;;;;;;;4987804;28;20036;-64
2023/05/31 03:14:11;;;;;;;6.40;3.30;;;;;;;;;;4993763;28;20034;-62
2023/05/31 03:16:45;;;;;;;7.15;2.85;;;;;;;;;;5001595;28;20037;-63
2023/05/31 03:19:14;;;;;;;5.50;2.63;;;;;;;;;;4997530;28;20044;-62
2023/05/31 03:21:43;;;;;;;7.32;2.97;;;;;;;;;;5012292;28;20036;-61
2023/05/31 03:24:09;;;;;;;9.18;2.70;;;;;;;;;;4994445;28;20060;-62
2023/05/31 03:26:36;;;;;;;5.63;2.88;;;;;;;;;;4998262;28;20040;-62
2023/05/31 03:29:03;;;;;;;9.25;2.75;;;;;;;;;;4995391;28;20165;-62
2023/05/31 03:31:29;;;;;;;7.53;2.90;;;;;;;;;;5012985;28;20061;-61
2023/05/31 03:33:56;;;;;;;5.78;2.80;;;;;;;;;;4993222;28;20121;-63
2023/05/31 03:36:22;;;;;;;4.75;2.42;;;;;;;;;;5019168;28;20212;-64
2023/05/31 03:38:48;;;;;;;5.43;2.75;;;;;;;;;;5006199;28;20041;-61
2023/05/31 03:41:16;;;;;;;6.20;2.85;;;;;;;;;;4993479;28;20044;-62
2023/05/31 03:43:42;;;;;;;7.65;2.88;;;;;;;;;;4997966;28;20038;-62
2023/05/31 03:46:09;;;;;;;5.63;2.60;;;;;;;;;;5002614;28;20049;-62
2023/05/31 03:48:36;;;;;;;6.78;3.20;;;;;;;;;;4953988;28;1156461;-62
2023/05/31 03:51:02;;;;;;;5.45;2.97;;;;;;;;;;4993403;28;20042;-61
2023/05/31 03:53:29;;;;;;;6.82;2.80;;;;;;;;;;5000215;28;20550;-62
2023/05/31 03:55:56;;;;;;;8.23;3.00;;;;;;;;;;4997949;28;20037;-62
2023/05/31 03:58:23;;;;;;;9.88;2.90;;;;;;;;;;4997845;28;20056;-62
2023/05/31 04:00:49;;;;;;;3.85;2.50;;;;;;;;;;4998753;28;20038;-62
2023/05/31 04:03:16;;;;;;;8.55;2.78;;;;;;;;;;4999621;28;20060;-60
2023/05/31 04:05:42;;;;;;;8.75;2.92;;;;;;;;;;5002565;28;20048;-61
2023/05/31 04:08:08;;;;;;;5.22;2.53;;;;;;;;;;5004914;28;20585;-62
2023/05/31 04:10:34;;;;;;;8.38;2.35;;;;;;;;;;4996883;28;20453;-62
2023/05/31 04:13:01;;;;;;;6.85;2.83;;;;;;;;;;4992381;28;20045;-61
2023/05/31 04:15:28;;;;;;;7.60;3.08;;;;;;;;;;4979837;28;20053;-63
2023/05/31 04:17:57;;;;;;;7.78;2.92;;;;;;;;;;4994827;28;20052;-62
2023/05/31 04:20:24;;;;;;;8.18;2.63;;;;;;;;;;5000295;28;20454;-62
2023/05/31 04:22:50;;;;;;;6.65;2.55;;;;;;;;;;4983034;28;20054;-63
2023/05/31 04:25:17;;;;;;;5.28;2.90;;;;;;;;;;4997965;28;20042;-63
2023/05/31 04:27:44;;;;;;;6.40;2.67;;;;;;;;;;4975851;28;20037;-62
2023/05/31 04:30:12;;;;;;;7.28;2.70;;;;;;;;;;4992431;28;20056;-62
2023/05/31 04:32:40;;;;;;;8.55;3.22;;;;;;;;;;4993998;28;20057;-62
2023/05/31 04:35:08;;;;;;;11.10;2.70;;;;;;;;;;4995778;28;20046;-62
2023/05/31 04:37:39;;;;;;;6.90;3.10;;;;;;;;;;4997620;28;20044;-63
2023/05/31 04:40:09;;;;;;;8.30;2.80;;;;;;;;;;4993964;28;20034;-62
2023/05/31 04:42:40;;;;;;;5.57;2.67;;;;;;;;;;4997477;28;20038;-63
2023/05/31 04:45:15;;;;;;;5.30;2.45;;;;;;;;;;4994395;28;20045;-63
2023/05/31 04:47:49;;;;;;;8.02;3.25;;;;;;;;;;4999093;28;20045;-62
2023/05/31 04:50:15;;;;;;;12.57;2.88;;;;;;;;;;4996044;28;20045;-62
2023/05/31 04:52:43;;;;;;;5.78;2.83;;;;;;;;;;4998369;28;20415;-62
2023/05/31 04:55:09;;;;;;;5.72;3.20;;;;;;;;;;4996208;28;20065;-62
2023/05/31 04:57:35;;;;;;;7.88;3.10;;;;;;;;;;4993344;28;20575;-62
2023/05/31 05:00:08;;;;;;;9.38;3.10;;;;;;;;;;4993640;28;20427;-62
2023/05/31 05:02:35;;;;;;;8.98;2.90;;;;;;;;;;4994685;28;20372;-62
2023/05/31 05:05:04;;;;;;;5.57;2.95;;;;;;;;;;4997456;28;20101;-61
2023/05/31 05:07:30;;;;;;;6.15;2.80;;;;;;;;;;4996462;28;20406;-61
2023/05/31 05:09:56;;;;;;;8.00;3.03;;;;;;;;;;4988953;28;20037;-60
2023/05/31 05:12:22;;;;;;;8.45;2.90;;;;;;;;;;5011565;28;20049;-59
2023/05/31 05:14:49;;;;;;;9.55;2.85;;;;;;;;;;5001351;28;20037;-60
2023/05/31 05:17:15;;;;;;;5.88;2.80;;;;;;;;;;4992377;28;20041;-61
2023/05/31 05:19:42;;;;;;;7.15;2.90;;;;;;;;;;5001252;28;20421;-59
2023/05/31 05:22:10;;;;;;;6.57;2.72;;;;;;;;;;4998690;28;20057;-60
2023/05/31 05:24:38;;;;;;;6.47;2.70;;;;;;;;;;5001204;28;20072;-61
2023/05/31 05:27:06;;;;;;;7.07;2.90;;;;;;;;;;4998824;28;20040;-61
2023/05/31 05:29:32;;;;;;;6.93;3.00;;;;;;;;;;4998733;28;20038;-61
2023/05/31 05:31:58;;;;;;;8.55;2.85;;;;;;;;;;5015547;28;20607;-60
2023/05/31 05:34:24;;;;;;;5.13;2.38;;;;;;;;;;4987336;28;20645;-61
2023/05/31 05:36:52;;;;;;;8.27;2.83;;;;;;;;;;5010253;28;20052;-60
2023/05/31 05:39:18;;;;;;;10.00;2.80;;;;;;;;;;4997900;28;20053;-61
2023/05/31 05:41:45;;;;;;;9.50;2.75;;;;;;;;;;5010846;28;20410;-59
2023/05/31 05:44:12;;;;;;;6.35;2.55;;;;;;;;;;5000222;28;20050;-60
2023/05/31 05:46:38;;;;;;;8.10;2.72;;;;;;;;;;4999472;28;20049;-60
2023/05/31 05:49:04;;;;;;;8.20;2.53;;;;;;;;;;5015524;28;20511;-60
2023/05/31 05:51:31;;;;;;;7.80;3.47;;;;;;;;;;5001663;28;20462;-61
2023/05/31 05:54:01;;;;;;;8.25;2.97;;;;;;;;;;5000159;28;20073;-61
2023/05/31 05:56:28;;;;;;;5.13;2.92;;;;;;;;;;4998641;28;20053;-60
2023/05/31 05:58:57;;;;;;;7.05;2.67;;;;;;;;;;4995739;28;20052;-60
2023/05/31 06:01:29;;;;;;;9.63;2.90;;;;;;;;;;5014614;28;20503;-60
2023/05/31 06:03:57;;;;;;;5.57;3.05;;;;;;;;;;5006750;28;20046;-60
2023/05/31 06:06:23;;;;;;;8.32;2.70;;;;;;;;;;5003730;28;20049;-60
2023/05/31 06:08:49;;;;;;;6.65;2.78;;;;;;;;;;4998489;28;20043;-60
2023/05/31 06:11:18;;;;;;;5.18;2.50;;;;;;;;;;4996999;28;20034;-60
2023/05/31 06:13:44;;;;;;;6.53;2.88;;;;;;;;;;5004622;28;20054;-59
2023/05/31 06:16:13;;;;;;;5.82;2.40;;;;;;;;;;5004999;28;20060;-60
2023/05/31 06:18:39;;;;;;;4.18;2.28;;;;;;;;;;5006666;28;20050;-61
2023/05/31 06:21:06;;;;;;;5.75;2.60;;;;;;;;;;5002466;28;20038;-61
2023/05/31 06:23:34;;;;;;;11.23;2.80;;;;;;;;;;5003676;28;20029;-61
2023/05/31 06:26:00;;;;;;;8.00;3.10;;;;;;;;;;4997809;28;20056;-62
2023/05/31 06:28:27;;;;;;;7.32;2.58;;;;;;;;;;5006186;28;20033;-61
2023/05/31 06:30:56;;;;;;;9.55;3.05;;;;;;;;;;4999494;28;20042;-63
2023/05/31 06:33:24;;;;;;;8.50;2.88;;;;;;;;;;5000419;28;20495;-61
2023/05/31 06:35:50;;;;;;;7.97;3.03;;;;;;;;;;5007783;28;20045;-62
2023/05/31 06:38:16;;;;;;;5.68;2.58;;;;;;;;;;5012958;28;20040;-62
2023/05/31 06:40:45;;;;;;;6.05;3.00;;;;;;;;;;4995365;28;20045;-63
2023/05/31 06:43:11;;;;;;;6.38;2.90;;;;;;;;;;5006126;28;20060;-62
2023/05/31 06:46:00;;;;;;;5.88;3.20;;;;;;;;;;4997581;28;20046;-61
2023/05/31 06:48:52;;;;;;;5.55;2.80;;;;;;;;;;4986918;28;20056;-62
2023/05/31 06:51:38;;;;;;;8.02;2.88;;;;;;;;;;5012564;28;20434;-60
2023/05/31 06:54:23;;;;;;;6.43;3.10;;;;;;;;;;5017962;28;20423;-60
2023/05/31 06:56:52;;;;;;;7.80;3.30;;;;;;;;;;5010983;28;20502;-60
2023/05/31 06:59:18;;;;;;;5.78;2.90;;;;;;;;;;5022358;28;20454;-60
2023/05/31 07:01:44;;;;;;;5.45;2.88;;;;;;;;;;5000952;28;20049;-60
2023/05/31 07:04:10;;;;;;;5.30;2.85;;;;;;;;;;5023387;28;20038;-60
2023/05/31 07:06:37;;;;;;;7.13;3.30;;;;;;;;;;5006116;28;20042;-60
2023/05/31 07:09:06;;;;;;;;;;;;;;;;;;4996630;28;20048;-60
2023/05/31 07:11:38;;;;;;;;;;;;;;;;;;4985277;28;19913;-59
2023/05/31 07:14:04;;;;;;;5.63;3.05;;;;;;;;;;4997884;28;20413;-60
2023/05/31 07:16:31;;;;;;;7.63;3.20;;;;;;;;;;5002545;28;20419;-60
2023/05/31 07:18:58;;;;;;;10.40;3.45;;;;;;;;;;5015491;28;20093;-58
2023/05/31 07:21:25;;;;;;;6.88;3.13;;;;;;;;;;4989846;28;20488;-60
2023/05/31 07:23:51;;;;;;;7.95;3.50;;;;;;;;;;5012499;28;20038;-60
2023/05/31 07:26:18;;;;;;;11.10;3.50;;;;;;;;;;5014200;28;20056;-59
2023/05/31 07:28:45;;;;;;;8.73;3.47;;;;;;;;;;5017866;28;20036;-61
2023/05/31 07:31:12;;;;;;;11.15;3.42;;;;;;;;;;5012827;28;20045;-60
2023/05/31 07:33:38;;;;;;;10.43;3.58;;;;;;;;;;5013973;28;20061;-60
2023/05/31 07:36:04;;;;;;;11.50;3.63;;;;;;;;;;5012807;28;20053;-60
2023/05/31 07:38:30;;;;;;;7.10;2.88;;;;;;;;;;5017862;28;20044;-59
2023/05/31 07:40:57;;;;;;;10.73;3.25;;;;;;;;;;5015690;28;20069;-60
2023/05/31 07:43:23;;;;;;;9.38;3.33;;;;;;;;;;5013817;28;20041;-60
2023/05/31 07:45:50;;;;;;;15.15;3.58;;;;;;;;;;5014695;28;20791;-60
2023/05/31 07:48:17;;;;;;;11.35;3.70;;;;;;;;;;5021804;28;20036;-60
2023/05/31 07:50:44;;;;;;;7.47;3.00;;;;;;;;;;5028182;28;20052;-59
2023/05/31 07:53:10;;;;;;;12.10;3.28;;;;;;;;;;5019993;28;20058;-59
2023/05/31 07:55:37;;;;;;;9.57;3.63;;;;;;;;;;5014958;28;20049;-58
2023/05/31 07:58:03;;;;;;;6.63;3.08;;;;;;;;;;5012865;28;20284;-60
2023/05/31 08:00:30;;;;;;;6.68;3.15;;;;;;;;;;4996097;28;20038;-61
2023/05/31 08:02:56;;;;;;;8.15;3.85;;;;;;;;;;5014328;28;20070;-60
2023/05/31 08:05:22;;;;;;;7.90;3.45;;;;;;;;;;5013780;28;20053;-60
2023/05/31 08:07:49;;;;;;;9.38;3.75;;;;;;;;;;5015236;28;20530;-60
2023/05/31 08:10:18;;;;;;;7.97;3.42;;;;;;;;;;5007462;28;20057;-60
2023/05/31 08:12:44;;;;;;;9.18;3.20;;;;;;;;;;5014631;28;20042;-61
2023/05/31 08:15:13;;;;;;;8.63;3.25;;;;;;;;;;5014607;28;20034;-60
2023/05/31 08:17:39;;;;;;;4.95;2.78;;;;;;;;;;5014461;28;20072;-61
2023/05/31 08:20:06;;;;;;;8.20;3.42;;;;;;;;;;5019974;28;20041;-61
2023/05/31 08:22:33;;;;;;;8.30;3.30;;;;;;;;;;5013865;28;20064;-60
2023/05/31 08:24:59;;;;;;;8.18;3.30;;;;;;;;;;5013003;28;20058;-61
2023/05/31 08:27:25;;;;;;;6.18;3.28;;;;;;;;;;5014675;28;20049;-60
2023/05/31 08:29:51;;;;;;;7.22;3.25;;;;;;;;;;4999575;28;20037;-61
2023/05/31 08:32:17;;;;;;;5.55;3.03;;;;;;;;;;5012979;28;20061;-61
2023/05/31 08:34:45;;;;;;;7.15;2.85;;;;;;;;;;5014644;28;20033;-59
2023/05/31 08:37:12;;;;;;;5.60;3.47;;;;;;;;;;5014534;28;20057;-60
2023/05/31 08:39:38;;;;;;;7.95;3.58;;;;;;;;;;4994452;28;20049;-59
2023/05/31 08:42:10;;;;;;;4.82;2.97;;;;;;;;;;5016947;28;20053;-60
2023/05/31 08:44:36;;;;;;;8.32;3.60;;;;;;;;;;5024766;28;20395;-58
2023/05/31 08:47:25;;;;;;;7.40;3.53;;;;;;;;;;5010228;28;20037;-59
2023/05/31 08:49:52;;;;;;;6.40;3.20;;;;;;;;;;4993906;28;20503;-60
2023/05/31 08:52:19;;;;;;;8.32;3.00;;;;;;;;;;5013323;28;20065;-59
2023/05/31 08:54:45;;;;;;;7.28;3.08;;;;;;;;;;5006787;28;20045;-59
2023/05/31 08:57:12;;;;;;;5.93;3.13;;;;;;;;;;5016934;28;20041;-59
2023/05/31 08:59:38;;;;;;;4.32;3.10;;;;;;;;;;4999621;28;20097;-59
2023/05/31 09:02:05;;;;;;;6.53;3.17;;;;;;;;;;5016738;28;20057;-59
2023/05/31 09:04:32;;;;;;;7.15;3.40;;;;;;;;;;5019718;28;20430;-60
2023/05/31 09:07:00;;;;;;;5.82;3.35;;;;;;;;;;5021132;28;20399;-61
2023/05/31 09:09:26;;;;;;;4.30;2.53;;;;;;;;;;5018141;28;20048;-59
2023/05/31 09:11:52;;;;;;;7.07;3.40;;;;;;;;;;5017750;28;20399;-62
2023/05/31 09:14:18;;;;;;;6.50;3.25;;;;;;;;;;5016780;28;20054;-61
2023/05/31 09:16:45;;;;;;;7.22;3.35;;;;;;;;;;5023107;28;20044;-61
2023/05/31 09:19:11;;;;;;;7.47;3.17;;;;;;;;;;5018468;28;20045;-64
2023/05/31 09:21:39;;;;;;;4.70;3.60;;;;;;;;;;5016630;28;20530;-64
2023/05/31 09:24:06;;;;;;;4.28;3.30;;;;;;;;;;5019060;28;20515;-61
2023/05/31 09:26:33;;;;;;;7.75;3.20;;;;;;;;;;5022930;28;20037;-63
2023/05/31 09:29:00;;;;;;;7.93;3.30;;;;;;;;;;5022013;28;20029;-63
2023/05/31 09:31:27;;;;;;;7.63;3.60;;;;;;;;;;5022626;28;20044;-64
2023/05/31 09:33:55;;;;;;;6.55;3.20;;;;;;;;;;5019351;28;20056;-64
2023/05/31 09:36:30;;;;;;;6.43;3.20;;;;;;;;;;5017475;28;20053;-63
2023/05/31 09:39:10;;;;;;;6.28;3.67;;;;;;;;;;5017024;28;20056;-63
2023/05/31 09:41:36;;;;;;;5.90;3.13;;;;;;;;;;5018780;28;20069;-63
2023/05/31 09:44:07;;;;;;;8.38;3.50;;;;;;;;;;5014961;28;20029;-63
2023/05/31 09:46:34;;;;;;;5.97;3.20;;;;;;;;;;5024609;28;20422;-63
2023/05/31 09:49:06;;;;;;;8.32;3.45;;;;;;;;;;4998563;28;20036;-63
2023/05/31 09:51:33;;;;;;;6.97;3.42;;;;;;;;;;5014092;28;20033;-63
2023/05/31 09:54:01;;;;;;;7.97;3.17;;;;;;;;;;5018731;28;20045;-63
2023/05/31 09:56:28;;;;;;;5.97;3.27;;;;;;;;;;5011983;28;20136;-63
2023/05/31 09:58:56;;;;;;;5.07;3.15;;;;;;;;;;4999427;28;20311;-63
2023/05/31 10:01:22;;;;;;;6.70;3.42;;;;;;;;;;5018685;28;20519;-63
2023/05/31 10:03:50;;;;;;;6.43;2.75;;;;;;;;;;5018133;28;20045;-63
2023/05/31 10:06:19;;;;;;;7.90;3.00;;;;;;;;;;5017021;28;20049;-63
2023/05/31 10:08:46;;;;;;;6.88;3.35;;;;;;;;;;5013614;28;20044;-63
2023/05/31 10:11:26;;;;;;;9.52;3.72;;;;;;;;;;5015370;28;20415;-63
2023/05/31 10:13:59;;;;;;;8.18;3.20;;;;;;;;;;5014883;28;20498;-63
2023/05/31 10:16:28;;;;;;;5.72;3.05;;;;;;;;;;4996417;28;20034;-63
2023/05/31 10:19:02;;;;;;;;;;;;;;;;;;5019440;28;20068;-63
2023/05/31 10:21:28;;;;;;;5.72;2.88;;;;;;;;;;5017710;28;19920;-60
2023/05/31 10:24:11;;;;;;;8.30;2.90;;;;;;;;;;5017424;28;20056;-63
2023/05/31 10:27:09;;;;;;;8.38;3.30;;;;;;;;;;4986324;28;20486;-62
2023/05/31 10:29:42;;;;;;;7.18;3.17;;;;;;;;;;5025285;28;20038;-64
2023/05/31 10:32:24;;;;;;;4.05;2.45;;;;;;;;;;4995993;28;20041;-63
2023/05/31 10:34:52;;;;;;;7.05;3.10;;;;;;;;;;5021543;28;20046;-63
2023/05/31 10:37:18;;;;;;;5.18;2.75;;;;;;;;;;5017991;28;20416;-62
2023/05/31 10:39:51;;;;;;;5.75;3.00;;;;;;;;;;5025324;28;20038;-62
2023/05/31 10:42:35;;;;;;;11.52;2.90;;;;;;;;;;5018666;28;20400;-63
2023/05/31 10:45:11;;;;;;;9.32;3.20;;;;;;;;;;5016957;28;20499;-63
2023/05/31 10:48:01;;;;;;;8.13;3.10;;;;;;;;;;5032983;28;20060;-63
2023/05/31 10:50:57;;;;;;;6.25;2.90;;;;;;;;;;4999718;28;20046;-63
2023/05/31 10:53:31;;;;;;;6.35;3.08;;;;;;;;;;5015323;28;20041;-64
2023/05/31 10:56:03;;;;;;;4.25;2.70;;;;;;;;;;4998382;28;20411;-64
2023/05/31 10:58:37;;;;;;;7.05;2.92;;;;;;;;;;5014208;28;20049;-63
2023/05/31 11:01:06;;;;;;;5.32;2.88;;;;;;;;;;4999759;28;20041;-64
2023/05/31 11:03:36;;;;;;;7.13;3.40;;;;;;;;;;5014508;28;20061;-64
2023/05/31 11:06:06;;;;;;;5.40;3.10;;;;;;;;;;5006259;28;20052;-64
2023/05/31 11:08:32;;;;;;;5.75;2.90;;;;;;;;;;4998772;28;20034;-65
2023/05/31 11:11:27;;;;;;;5.10;3.05;;;;;;;;;;5017100;28;20042;-61
2023/05/31 11:13:59;;;;;;;7.93;3.05;;;;;;;;;;5018090;28;20381;-64
2023/05/31 11:16:27;;;;;;;5.07;3.10;;;;;;;;;;5023528;28;20514;-64
2023/05/31 11:19:03;;;;;;;6.95;3.22;;;;;;;;;;5018623;28;20037;-64
2023/05/31 11:21:44;;;;;;;6.28;3.00;;;;;;;;;;5018696;28;20045;-64
2023/05/31 11:24:28;;;;;;;10.32;2.88;;;;;;;;;;5012146;28;20062;-64
2023/05/31 11:26:56;;;;;;;11.95;3.13;;;;;;;;;;5021988;28;20029;-64
2023/05/31 11:29:22;;;;;;;3.85;2.70;;;;;;;;;;5017327;28;20041;-63
2023/05/31 11:31:55;;;;;;;7.45;3.08;;;;;;;;;;5005190;28;20041;-63
2023/05/31 11:34:27;;;;;;;4.45;2.90;;;;;;;;;;5015596;28;20033;-63
2023/05/31 11:36:56;;;;;;;8.90;2.70;;;;;;;;;;5011703;28;20116;-63
2023/05/31 11:39:23;;;;;;;4.82;2.40;;;;;;;;;;5020192;28;20125;-61
2023/05/31 11:41:49;;;;;;;5.03;2.60;;;;;;;;;;5024698;28;20403;-60
2023/05/31 11:44:21;;;;;;;5.30;2.58;;;;;;;;;;4985668;28;20034;-61
2023/05/31 11:46:54;;;;;;;6.20;2.58;;;;;;;;;;5021425;28;20041;-61
2023/05/31 11:49:21;;;;;;;6.55;2.55;;;;;;;;;;5015482;28;20234;-62
2023/05/31 11:51:48;;;;;;;4.95;2.55;;;;;;;;;;5018381;28;20041;-66
2023/05/31 11:54:14;;;;;;;8.68;2.60;;;;;;;;;;5016867;28;20048;-60
2023/05/31 11:56:41;;;;;;;7.15;2.80;;;;;;;;;;5012784;28;20392;-63
2023/05/31 11:59:08;;;;;;;7.68;2.70;;;;;;;;;;4996567;28;20037;-63
2023/05/31 12:01:39;;;;;;;8.13;2.50;;;;;;;;;;5012309;28;20602;-62
2023/05/31 12:04:06;;;;;;;4.97;2.50;;;;;;;;;;5013653;28;20060;-62
2023/05/31 12:06:33;;;;;;;6.53;2.63;;;;;;;;;;5014744;28;20038;-62
2023/05/31 12:09:00;;;;;;;8.57;2.70;;;;;;;;;;5013495;28;20038;-61
2023/05/31 12:11:28;;;;;;;5.97;2.70;;;;;;;;;;5014917;28;20029;-63
2023/05/31 12:13:57;;;;;;;11.65;2.40;;;;;;;;;;5015070;28;20060;-58
2023/05/31 12:16:26;;;;;;;9.18;2.80;;;;;;;;;;5023540;28;20042;-57
2023/05/31 12:18:54;;;;;;;8.70;2.67;;;;;;;;;;5016789;28;20057;-59
2023/05/31 12:21:20;;;;;;;8.88;2.70;;;;;;;;;;5016227;28;20049;-60
2023/05/31 12:23:55;;;;;;;12.38;2.63;;;;;;;;;;5015190;28;20414;-61
2023/05/31 12:26:22;;;;;;;8.48;2.72;;;;;;;;;;4996558;28;20038;-60
2023/05/31 12:28:51;;;;;;;7.38;2.90;;;;;;;;;;5016270;28;20042;-60
2023/05/31 12:31:24;;;;;;;8.02;2.78;;;;;;;;;;5017022;28;20415;-60
2023/05/31 12:33:56;;;;;;;10.82;3.00;;;;;;;;;;4998847;28;20041;-61
2023/05/31 12:36:23;;;;;;;4.35;2.55;;;;;;;;;;5028824;28;20044;-62
2023/05/31 12:38:59;;;;;;;10.50;4.32;;;;;;;;;;5021746;28;20061;-62
2023/05/31 12:41:26;;;;;;;7.50;2.33;;;;;;;;;;5017052;28;20053;-60
2023/05/31 12:43:54;;;;;;;5.35;2.40;;;;;;;;;;5028304;28;20046;-62
2023/05/31 12:46:20;;;;;;;7.90;3.10;;;;;;;;;;5027214;28;20053;-57
2023/05/31 12:48:49;;;;;;;6.30;2.72;;;;;;;;;;5022053;28;20288;-58
2023/05/31 12:51:22;;;;;;;9.52;2.83;;;;;;;;;;5018664;28;20037;-59
2023/05/31 12:53:49;;;;;;;5.78;2.53;;;;;;;;;;4997720;28;20411;-60
2023/05/31 12:56:15;;;;;;;6.93;2.83;;;;;;;;;;5018221;28;20038;-59
2023/05/31 12:58:42;;;;;;;7.35;1.92;;;;;;;;;;5018804;28;20058;-59
2023/05/31 13:01:08;;;;;;;9.45;2.58;;;;;;;;;;5015209;28;20049;-59
2023/05/31 13:03:34;;;;;;;6.25;2.63;;;;;;;;;;5031803;28;20045;-59
2023/05/31 13:06:01;;;;;;;6.78;2.55;;;;;;;;;;5023467;28;20046;-59
2023/05/31 13:08:28;;;;;;;5.07;2.30;;;;;;;;;;5022329;28;20072;-58
2023/05/31 13:10:54;;;;;;;3.92;2.22;;;;;;;;;;5022376;28;20049;-57
2023/05/31 13:13:20;;;;;;;3.65;2.20;;;;;;;;;;5020728;28;20068;-60
2023/05/31 13:15:47;;;;;;;6.53;2.90;;;;;;;;;;5016768;28;20057;-60
2023/05/31 13:18:13;;;;;;;5.68;2.15;;;;;;;;;;5015875;28;20054;-61
2023/05/31 13:20:39;;;;;;;5.47;2.20;;;;;;;;;;5020835;28;20045;-61
2023/05/31 13:23:08;;;;;;;6.85;2.40;;;;;;;;;;5023708;28;20396;-61
2023/05/31 13:25:35;;;;;;;5.22;2.75;;;;;;;;;;5023860;28;20034;-61
2023/05/31 13:28:01;;;;;;;3.75;2.28;;;;;;;;;;5023097;28;20057;-61
2023/05/31 13:30:27;;;;;;;6.97;2.40;;;;;;;;;;5021667;28;20045;-61
2023/05/31 13:32:53;;;;;;;4.97;2.60;;;;;;;;;;5023565;28;20060;-61
2023/05/31 13:35:19;;;;;;;5.65;2.33;;;;;;;;;;5019692;28;20054;-60
2023/05/31 13:37:45;;;;;;;8.23;2.50;;;;;;;;;;5019399;28;20049;-60
2023/05/31 13:40:12;;;;;;;7.15;2.55;;;;;;;;;;5018828;28;20057;-61
2023/05/31 13:42:38;;;;;;;4.05;2.15;;;;;;;;;;5019354;28;20491;-60
2023/05/31 13:45:05;;;;;;;10.02;2.53;;;;;;;;;;5014510;28;20080;-60
2023/05/31 13:47:32;;;;;;;5.68;2.42;;;;;;;;;;5015660;28;20049;-61
2023/05/31 13:49:59;;;;;;;7.68;2.45;;;;;;;;;;5024696;28;20032;-60
2023/05/31 13:52:25;;;;;;;5.00;2.28;;;;;;;;;;5023334;28;20061;-61
2023/05/31 13:54:51;;;;;;;5.50;1.88;;;;;;;;;;5024328;28;20042;-61
2023/05/31 13:57:17;;;;;;;6.28;2.22;;;;;;;;;;5016628;28;20398;-59
2023/05/31 13:59:43;;;;;;;5.55;2.63;;;;;;;;;;5015783;28;20065;-60
2023/05/31 14:02:09;;;;;;;4.20;1.88;;;;;;;;;;5000123;28;20053;-61
2023/05/31 14:04:35;;;;;;;5.68;2.33;;;;;;;;;;5015580;28;20057;-60
2023/05/31 14:07:03;;;;;;;8.77;3.00;;;;;;;;;;5013594;28;20054;-58
2023/05/31 14:09:29;;;;;;;4.47;2.30;;;;;;;;;;5019160;28;20045;-60
2023/05/31 14:11:55;;;;;;;9.32;2.67;;;;;;;;;;5015839;28;20503;-61
2023/05/31 14:14:21;;;;;;;4.80;2.30;;;;;;;;;;5016679;28;20049;-60
2023/05/31 14:16:48;;;;;;;4.05;2.22;;;;;;;;;;5018219;28;20049;-61
2023/05/31 14:19:14;;;;;;;8.30;2.38;;;;;;;;;;5005069;28;20422;-61
2023/05/31 14:21:40;;;;;;;6.28;2.35;;;;;;;;;;5023869;28;20033;-60
2023/05/31 14:24:07;;;;;;;5.10;2.40;;;;;;;;;;5021759;28;20081;-60
2023/05/31 14:26:33;;;;;;;5.65;2.45;;;;;;;;;;5015254;28;20030;-59
2023/05/31 14:28:59;;;;;;;9.13;2.40;;;;;;;;;;5024409;28;20033;-58
2023/05/31 14:31:25;;;;;;;7.20;2.20;;;;;;;;;;5020325;28;20056;-59
2023/05/31 14:33:51;;;;;;;6.22;2.22;;;;;;;;;;5016254;28;20033;-62
2023/05/31 14:36:17;;;;;;;4.88;2.20;;;;;;;;;;5022022;28;20057;-62
2023/05/31 14:38:44;;;;;;;4.20;2.25;;;;;;;;;;5025850;28;20052;-61
2023/05/31 14:41:10;;;;;;;3.95;2.10;;;;;;;;;;5009972;28;20519;-62
2023/05/31 14:43:36;;;;;;;6.35;2.38;;;;;;;;;;5017043;28;20374;-61
2023/05/31 14:46:02;;;;;;;7.03;2.80;;;;;;;;;;5015240;28;20050;-62
2023/05/31 14:48:28;;;;;;;7.30;2.55;;;;;;;;;;4995129;28;20384;-63